Kyokusho Maru — JL6605 — position and weather

sailwx.info

Track history (hours):
 
Tides and Currents Weather Stations Pressure Air Temp Water Temp Dewpoint Dewpoint Depression Visibility Wind Speed Wind Dir Waves Ship Positions

Kyokusho Maru

Last reported at 2017-Feb-22 10:07 UTC. Time now 2017-Feb-23 07:10 UTC.
Position N 33°52' E 131°54'.

Length 77 m; draft 5.5 m.

Type: Tanker. MMSI: 431501667.

Date/timePositionNaut miles runAvg speedWind from/ knotsBaromVisibWave heightAir tempDewpointWater temp
2017-Feb-22 10:07N 33°52' E 131°54'1610.0
2017-Feb-22 08:31N 33°50' E 132°13'1111.2
2017-Feb-22 07:33N 33°53' E 132°25'18 4.1
2017-Feb-22 03:09N 34°11' E 132°26'5 7.2
2017-Feb-22 02:30N 34°06' E 132°26'4 0.2
2017-Feb-21 08:29N 34°04' E 132°30'1010.6
2017-Feb-21 07:30N 34°07' E 132°42'  
2017-Feb-15 14:33N 33°59' E 132°44'1312.7
2017-Feb-15 13:33N 33°52' E 132°31'1312.6
2017-Feb-15 12:30N 33°50' E 132°15'16 0.5
2017-Feb-14 06:33N 33°51' E 131°56'10 9.9
2017-Feb-14 05:34N 33°47' E 132°06'1212.2
2017-Feb-14 04:34N 33°50' E 132°21'1110.7
2017-Feb-14 03:33N 33°59' E 132°29'1110.7
2017-Feb-14 02:32N 34°10' E 132°26'1 0.4
2017-Feb-13 23:14N 34°11' E 132°26'5 6.3
2017-Feb-13 22:27N 34°06' E 132°26'5 0.5
2017-Feb-13 11:23N 34°02' E 132°31'  
Track history (hours):
 
Tides and Currents Weather Stations Pressure Air Temp Water Temp Dewpoint Dewpoint Depression Visibility Wind Speed Wind Dir Waves Ship Positions

Kyokusho Maru

Last reported at 2017-Feb-22 10:07 UTC. Time now 2017-Feb-23 07:10 UTC.
Position N 33°52' E 131°54'.

Length 77 m; draft 5.5 m.

Type: Tanker. MMSI: 431501667.

Date/timePositionNaut miles runAvg speedWind from/ knotsBaromVisibWave heightAir tempDewpointWater temp
2017-Feb-22 10:07N 33°52' E 131°54'1610.0
2017-Feb-22 08:31N 33°50' E 132°13'1111.2
2017-Feb-22 07:33N 33°53' E 132°25'18 4.1
2017-Feb-22 03:09N 34°11' E 132°26'5 7.2
2017-Feb-22 02:30N 34°06' E 132°26'4 0.2
2017-Feb-21 08:29N 34°04' E 132°30'1010.6
2017-Feb-21 07:30N 34°07' E 132°42'  
2017-Feb-15 14:33N 33°59' E 132°44'1312.7
2017-Feb-15 13:33N 33°52' E 132°31'1312.6
2017-Feb-15 12:30N 33°50' E 132°15'16 0.5
2017-Feb-14 06:33N 33°51' E 131°56'10 9.9
2017-Feb-14 05:34N 33°47' E 132°06'1212.2
2017-Feb-14 04:34N 33°50' E 132°21'1110.7
2017-Feb-14 03:33N 33°59' E 132°29'1110.7
2017-Feb-14 02:32N 34°10' E 132°26'1 0.4
2017-Feb-13 23:14N 34°11' E 132°26'5 6.3
2017-Feb-13 22:27N 34°06' E 132°26'5 0.5
2017-Feb-13 11:23N 34°02' E 132°31'  

Dump ship's entire track history